createdAt,value
2022-10-29T00:00:44.500Z,2.35
2022-10-29T00:03:11.382Z,2.17
2022-10-29T00:05:38.189Z,2.45
2022-10-29T00:08:05.107Z,2.33
2022-10-29T00:10:33.341Z,2.17
2022-10-29T00:13:02.379Z,2.30
2022-10-29T00:15:29.794Z,1.67
2022-10-29T00:17:57.037Z,2.10
2022-10-29T00:20:24.207Z,2.33
2022-10-29T00:22:55.329Z,2.30
2022-10-29T00:25:22.464Z,2.65
2022-10-29T00:27:49.291Z,2.55
2022-10-29T00:30:16.206Z,2.33
2022-10-29T00:32:42.957Z,2.50
2022-10-29T00:35:09.938Z,2.53
2022-10-29T00:37:36.744Z,3.10
2022-10-29T00:40:04.744Z,2.35
2022-10-29T00:42:31.672Z,3.10
2022-10-29T00:44:58.439Z,3.00
2022-10-29T00:47:36.879Z,3.40
2022-10-29T00:50:09.910Z,2.30
2022-10-29T00:52:41.570Z,2.33
2022-10-29T00:55:12.373Z,2.20
2022-10-29T00:57:41.568Z,2.28
2022-10-29T01:00:09.143Z,2.25
2022-10-29T01:02:38.239Z,1.95
2022-10-29T01:05:06.240Z,2.40
2022-10-29T01:07:33.782Z,2.22
2022-10-29T01:10:00.544Z,1.92
2022-10-29T01:12:48.517Z,2.10
2022-10-29T01:15:54.530Z,2.13
2022-10-29T01:18:37.640Z,1.95
2022-10-29T01:21:35.233Z,1.88
2022-10-29T01:24:26.699Z,1.95
2022-10-29T01:27:15.343Z,2.00
2022-10-29T01:30:00.669Z,2.10
2022-10-29T01:32:47.399Z,2.10
2022-10-29T01:38:01.255Z,1.80
2022-10-29T01:40:35.033Z,1.80
2022-10-29T01:43:16.660Z,2.17
2022-10-29T01:45:54.537Z,2.15
2022-10-29T01:48:34.078Z,2.30
2022-10-29T01:51:08.056Z,2.00
2022-10-29T01:53:38.069Z,1.75
2022-10-29T01:56:05.214Z,1.77
2022-10-29T01:58:32.878Z,1.60
2022-10-29T02:01:11.494Z,2.00
2022-10-29T02:04:04.285Z,1.77
2022-10-29T02:06:51.073Z,1.70
2022-10-29T02:09:33.798Z,1.65
2022-10-29T02:12:18.644Z,1.77
2022-10-29T02:14:56.988Z,1.58
2022-10-29T02:17:24.674Z,1.92
2022-10-29T02:19:51.520Z,2.30
2022-10-29T02:22:18.405Z,2.70
2022-10-29T02:24:45.160Z,2.08
2022-10-29T02:27:12.025Z,2.50
2022-10-29T02:29:38.747Z,2.67
2022-10-29T02:32:07.174Z,2.65
2022-10-29T02:34:33.954Z,2.90
2022-10-29T02:37:00.727Z,2.90
2022-10-29T02:39:27.463Z,2.72
2022-10-29T02:41:54.551Z,2.47
2022-10-29T02:44:21.365Z,3.40
2022-10-29T02:46:48.099Z,3.20
2022-10-29T02:49:14.863Z,2.85
2022-10-29T02:51:41.593Z,2.80
2022-10-29T02:54:08.318Z,2.53
2022-10-29T02:56:35.102Z,2.70
2022-10-29T02:59:03.366Z,2.28
2022-10-29T03:01:32.246Z,2.45
2022-10-29T03:03:59.125Z,2.28
2022-10-29T03:06:26.298Z,2.75
2022-10-29T03:08:53.038Z,2.50
2022-10-29T03:11:19.846Z,2.15
2022-10-29T03:13:46.679Z,2.15
2022-10-29T03:16:13.414Z,2.30
2022-10-29T03:18:40.198Z,2.13
2022-10-29T03:21:06.942Z,2.28
2022-10-29T03:23:33.668Z,3.22
2022-10-29T03:26:00.586Z,2.40
2022-10-29T03:28:30.678Z,2.40
2022-10-29T03:30:58.195Z,2.40
2022-10-29T03:33:26.605Z,2.22
2022-10-29T03:36:00.831Z,2.20
2022-10-29T03:38:28.421Z,2.15
2022-10-29T03:40:55.347Z,2.30
2022-10-29T03:43:22.630Z,2.05
2022-10-29T03:45:57.328Z,2.20
2022-10-29T03:48:25.240Z,2.30
2022-10-29T03:51:00.092Z,2.10
2022-10-29T03:53:28.022Z,2.15
2022-10-29T03:55:56.592Z,2.20
2022-10-29T03:58:24.006Z,1.77
2022-10-29T04:00:55.677Z,2.10
2022-10-29T04:03:22.465Z,2.00
2022-10-29T04:05:49.192Z,2.22
2022-10-29T04:08:17.075Z,2.33
2022-10-29T04:10:45.888Z,2.20
2022-10-29T04:13:13.353Z,2.40
2022-10-29T04:15:40.766Z,2.38
2022-10-29T04:18:08.768Z,2.55
2022-10-29T04:21:15.919Z,2.05
2022-10-29T04:28:56.942Z,1.80
2022-10-29T04:31:23.687Z,2.45
2022-10-29T04:33:53.304Z,2.03
2022-10-29T04:36:20.099Z,2.42
2022-10-29T04:38:46.867Z,2.08
2022-10-29T04:41:13.599Z,2.03
2022-10-29T04:43:40.390Z,2.20
2022-10-29T04:46:07.179Z,1.90
2022-10-29T04:48:33.964Z,2.22
2022-10-29T04:51:00.782Z,2.08
2022-10-29T04:53:27.579Z,2.15
2022-10-29T04:56:00.922Z,2.35
2022-10-29T04:58:28.142Z,2.92
2022-10-29T05:01:00.565Z,2.17
2022-10-29T05:03:27.477Z,2.00
2022-10-29T05:05:54.250Z,2.35
2022-10-29T05:08:21.535Z,2.30
2022-10-29T05:10:48.293Z,2.30
2022-10-29T05:13:15.381Z,2.10
2022-10-29T05:15:42.367Z,2.72
2022-10-29T05:18:10.238Z,2.08
2022-10-29T05:20:36.993Z,2.08
2022-10-29T05:23:06.714Z,1.90
2022-10-29T05:25:35.726Z,2.45
2022-10-29T05:28:09.395Z,1.63
2022-10-29T05:30:36.404Z,2.10
2022-10-29T05:33:09.221Z,1.70
2022-10-29T05:35:36.719Z,1.77
2022-10-29T05:38:04.630Z,1.92
2022-10-29T05:40:31.906Z,2.30
2022-10-29T05:42:59.512Z,2.53
2022-10-29T05:45:26.444Z,2.00
2022-10-29T05:48:01.492Z,3.10
2022-10-29T05:50:30.087Z,2.10
2022-10-29T05:53:01.086Z,2.15
2022-10-29T05:55:30.287Z,1.95
2022-10-29T05:57:58.315Z,1.98
2022-10-29T06:00:29.803Z,2.33
2022-10-29T06:02:57.229Z,1.90
2022-10-29T06:05:25.165Z,2.13
2022-10-29T06:07:56.620Z,1.95
2022-10-29T06:10:25.417Z,1.77
2022-10-29T06:12:52.295Z,2.40
2022-10-29T06:15:19.553Z,2.25
2022-10-29T06:17:47.044Z,2.08
2022-10-29T06:20:16.227Z,2.10
2022-10-29T06:22:43.031Z,2.60
2022-10-29T06:25:10.013Z,1.90
2022-10-29T06:27:37.522Z,2.88
2022-10-29T06:30:05.726Z,2.97
2022-10-29T06:32:32.633Z,2.55
2022-10-29T06:34:59.417Z,2.60
2022-10-29T06:37:26.263Z,3.20
2022-10-29T06:39:53.028Z,2.80
2022-10-29T06:42:19.834Z,2.85
2022-10-29T06:44:46.590Z,2.53
2022-10-29T06:47:13.341Z,3.25
2022-10-29T06:49:40.222Z,2.55
2022-10-29T06:52:06.977Z,2.78
2022-10-29T06:54:33.730Z,2.40
2022-10-29T06:57:00.503Z,2.90
2022-10-29T06:59:27.314Z,2.67
2022-10-29T07:01:54.170Z,2.92
2022-10-29T07:04:21.204Z,3.00
2022-10-29T07:06:48.013Z,3.00
2022-10-29T07:09:14.790Z,3.30
2022-10-29T07:11:41.624Z,3.03
2022-10-29T07:14:09.822Z,3.20
2022-10-29T07:16:37.265Z,3.17
2022-10-29T07:19:04.921Z,3.63
2022-10-29T07:21:31.747Z,4.57
2022-10-29T07:23:58.675Z,5.32
2022-10-29T07:26:25.662Z,4.93
2022-10-29T07:28:56.975Z,5.03
2022-10-29T07:31:24.155Z,4.05
2022-10-29T07:33:51.373Z,4.20
2022-10-29T07:36:18.102Z,3.58
2022-10-29T07:38:44.958Z,3.80
2022-10-29T07:41:11.742Z,3.40
2022-10-29T07:43:38.558Z,3.42
2022-10-29T07:46:05.478Z,2.60
2022-10-29T07:48:32.346Z,2.85
2022-10-29T07:51:00.238Z,3.05
2022-10-29T07:53:27.487Z,3.28
2022-10-29T07:55:55.352Z,3.63
2022-10-29T07:58:23.172Z,2.95
2022-10-29T08:00:51.082Z,2.67
2022-10-29T08:03:18.184Z,3.25
2022-10-29T08:05:48.936Z,3.80
2022-10-29T08:08:19.028Z,3.15
2022-10-29T08:10:45.844Z,2.92
2022-10-29T08:13:12.842Z,3.55
2022-10-29T08:15:39.666Z,3.60
2022-10-29T08:18:14.209Z,3.78
2022-10-29T08:20:41.475Z,3.72
2022-10-29T08:23:09.029Z,3.65
2022-10-29T08:25:41.243Z,3.13
2022-10-29T08:28:10.425Z,4.00
2022-10-29T08:30:38.870Z,3.60
2022-10-29T08:33:06.271Z,3.80
2022-10-29T08:35:34.045Z,3.90
2022-10-29T08:38:01.102Z,4.45
2022-10-29T08:40:39.259Z,4.00
2022-10-29T08:43:11.495Z,3.72
2022-10-29T08:45:48.066Z,3.53
2022-10-29T08:48:38.002Z,3.35
2022-10-29T08:51:19.837Z,3.42
2022-10-29T08:53:58.875Z,4.00
2022-10-29T08:56:39.000Z,3.22
2022-10-29T08:59:15.883Z,3.28
2022-10-29T09:01:43.522Z,3.00
2022-10-29T09:04:38.105Z,3.60
2022-10-29T09:07:42.102Z,3.08
2022-10-29T09:10:28.148Z,3.33
2022-10-29T09:13:17.986Z,3.35
2022-10-29T09:16:06.223Z,3.42
2022-10-29T09:18:42.754Z,2.92
2022-10-29T09:21:18.432Z,3.33
2022-10-29T09:24:02.392Z,2.75
2022-10-29T09:26:43.715Z,3.63
2022-10-29T09:29:45.981Z,3.15
2022-10-29T09:32:15.816Z,3.30
2022-10-29T09:34:52.746Z,3.35
2022-10-29T09:37:39.483Z,3.63
2022-10-29T09:40:15.480Z,3.28
2022-10-29T09:42:45.733Z,3.90
2022-10-29T09:45:18.806Z,3.70
2022-10-29T09:48:07.780Z,3.50
2022-10-29T09:51:00.251Z,4.18
2022-10-29T09:53:27.382Z,4.38
2022-10-29T09:55:54.760Z,3.80
2022-10-29T09:58:27.199Z,3.70
2022-10-29T10:00:56.455Z,3.95
2022-10-29T10:03:26.241Z,3.50
2022-10-29T10:06:03.163Z,4.03
2022-10-29T10:08:31.787Z,3.63
2022-10-29T10:11:06.057Z,3.90
2022-10-29T10:13:49.895Z,3.90
2022-10-29T10:16:24.706Z,3.70
2022-10-29T10:18:51.745Z,3.10
2022-10-29T10:21:25.942Z,3.25
2022-10-29T10:23:54.597Z,3.50
2022-10-29T10:26:44.570Z,3.25
2022-10-29T10:29:16.090Z,3.20
2022-10-29T10:31:50.935Z,3.47
2022-10-29T10:34:22.087Z,3.05
2022-10-29T10:37:01.787Z,3.10
2022-10-29T10:39:30.638Z,3.08
2022-10-29T10:42:04.227Z,2.97
2022-10-29T10:44:31.256Z,2.92
2022-10-29T10:47:05.347Z,2.97
2022-10-29T10:49:39.237Z,2.92
2022-10-29T10:52:19.090Z,2.70
2022-10-29T10:54:54.236Z,2.80
2022-10-29T10:57:25.160Z,2.70
2022-10-29T10:59:57.808Z,3.28
2022-10-29T11:03:20.448Z,2.95
2022-10-29T11:06:03.312Z,2.60
2022-10-29T11:08:54.883Z,2.60
2022-10-29T11:11:31.745Z,2.65
2022-10-29T11:14:12.280Z,2.30
2022-10-29T11:16:45.419Z,2.60
2022-10-29T11:19:47.207Z,2.38
2022-10-29T11:22:46.941Z,2.72
2022-10-29T11:25:22.295Z,2.40
2022-10-29T11:27:56.895Z,2.42
2022-10-29T11:30:24.008Z,2.40
2022-10-29T11:33:25.701Z,2.67
2022-10-29T11:36:06.257Z,2.30
2022-10-29T11:38:57.531Z,2.42
2022-10-29T11:41:39.116Z,2.38
2022-10-29T11:44:12.863Z,2.17
2022-10-29T11:46:59.406Z,2.47
2022-10-29T11:52:11.357Z,2.30
2022-10-29T11:55:11.437Z,2.83
2022-10-29T11:58:04.244Z,2.10
2022-10-29T12:00:54.181Z,2.20
2022-10-29T12:03:30.622Z,2.20
2022-10-29T12:06:37.128Z,2.15
2022-10-29T12:09:40.893Z,1.98
2022-10-29T12:12:30.985Z,2.42
2022-10-29T12:15:24.130Z,2.13
2022-10-29T12:18:04.695Z,2.50
2022-10-29T12:20:44.965Z,2.58
2022-10-29T12:23:25.287Z,2.20
2022-10-29T12:25:56.950Z,2.25
2022-10-29T12:28:35.561Z,1.90
2022-10-29T12:31:32.990Z,2.05
2022-10-29T12:34:11.784Z,2.25
2022-10-29T12:36:49.817Z,2.13
2022-10-29T12:39:35.725Z,2.22
2022-10-29T12:45:00.636Z,2.22
2022-10-29T12:47:40.016Z,2.22
2022-10-29T12:50:30.311Z,2.88
2022-10-29T12:53:29.195Z,2.45
2022-10-29T12:55:57.892Z,2.50
2022-10-29T12:58:50.607Z,2.40
2022-10-29T13:01:50.065Z,2.55
2022-10-29T13:04:34.151Z,2.28
2022-10-29T13:14:09.785Z,1.95
2022-10-29T13:17:02.951Z,2.67
2022-10-29T13:19:55.855Z,1.75
2022-10-29T13:22:59.159Z,2.22
2022-10-29T13:25:38.358Z,2.20
2022-10-29T13:28:08.280Z,2.25
2022-10-29T13:30:37.002Z,2.00
2022-10-29T13:33:21.981Z,2.00
2022-10-29T13:36:04.491Z,2.28
2022-10-29T13:39:06.815Z,2.20
2022-10-29T13:41:44.836Z,2.10
2022-10-29T13:44:22.502Z,2.55
2022-10-29T13:46:54.006Z,2.00
2022-10-29T13:49:42.959Z,2.53
2022-10-29T13:52:09.669Z,2.00
2022-10-29T13:54:50.691Z,2.03
2022-10-29T13:57:25.743Z,2.20
2022-10-29T14:00:15.638Z,2.28
2022-10-29T14:02:42.448Z,2.00
2022-10-29T14:05:14.941Z,2.40
2022-10-29T14:07:58.738Z,2.15
2022-10-29T14:13:24.692Z,2.40
2022-10-29T14:16:10.662Z,2.22
2022-10-29T14:18:45.877Z,2.17
2022-10-29T14:21:21.512Z,2.30
2022-10-29T14:24:05.713Z,2.35
2022-10-29T14:26:38.256Z,2.20
2022-10-29T14:29:25.497Z,2.40
2022-10-29T14:32:12.821Z,1.80
2022-10-29T14:34:45.170Z,2.90
2022-10-29T14:37:15.055Z,2.05
2022-10-29T14:39:59.449Z,2.08
2022-10-29T14:42:34.203Z,2.17
2022-10-29T14:45:19.677Z,2.05
2022-10-29T14:47:53.542Z,2.65
2022-10-29T14:50:23.596Z,2.00
2022-10-29T14:52:55.389Z,2.20
2022-10-29T14:55:34.444Z,2.35
2022-10-29T14:58:34.060Z,2.38
2022-10-29T15:01:05.767Z,2.42
2022-10-29T15:03:34.861Z,1.80
2022-10-29T15:06:19.401Z,2.35
2022-10-29T15:08:55.729Z,2.08
2022-10-29T15:11:36.071Z,2.70
2022-10-29T15:14:05.066Z,2.33
2022-10-29T15:16:38.118Z,1.85
2022-10-29T15:19:15.072Z,2.20
2022-10-29T15:21:42.184Z,2.25
2022-10-29T15:24:19.482Z,2.20
2022-10-29T15:26:51.256Z,2.05
2022-10-29T15:29:32.261Z,2.00
2022-10-29T15:32:00.469Z,2.35
2022-10-29T15:34:36.128Z,2.40
2022-10-29T15:37:32.366Z,2.22
2022-10-29T15:40:21.242Z,2.50
2022-10-29T15:42:48.291Z,2.17
2022-10-29T15:45:22.523Z,2.50
2022-10-29T15:47:59.174Z,1.77
2022-10-29T15:50:39.619Z,2.53
2022-10-29T15:53:11.276Z,2.15
2022-10-29T15:55:39.394Z,2.30
2022-10-29T15:58:12.096Z,3.00
2022-10-29T16:00:39.116Z,2.40
2022-10-29T16:03:16.553Z,3.03
2022-10-29T16:05:46.940Z,2.40
2022-10-29T16:08:31.547Z,2.65
2022-10-29T16:11:00.828Z,2.50
2022-10-29T16:13:30.236Z,2.80
2022-10-29T16:15:57.029Z,2.58
2022-10-29T16:18:23.994Z,2.40
2022-10-29T16:20:54.712Z,2.60
2022-10-29T16:23:21.586Z,2.78
2022-10-29T16:25:48.366Z,3.22
2022-10-29T16:28:15.128Z,3.45
2022-10-29T16:30:42.295Z,3.42
2022-10-29T16:33:11.536Z,3.03
2022-10-29T16:35:38.360Z,4.05
2022-10-29T16:38:05.105Z,3.78
2022-10-29T16:40:31.924Z,3.53
2022-10-29T16:42:59.187Z,3.22
2022-10-29T16:45:29.904Z,3.65
2022-10-29T16:47:57.427Z,5.03
2022-10-29T16:50:27.364Z,5.10
2022-10-29T16:52:58.960Z,5.93
2022-10-29T16:55:27.027Z,6.03
2022-10-29T16:57:54.255Z,6.22
2022-10-29T17:00:21.551Z,5.60
2022-10-29T17:02:48.832Z,5.95
2022-10-29T17:05:16.734Z,5.75
2022-10-29T17:07:43.651Z,5.90
2022-10-29T17:10:10.620Z,5.45
2022-10-29T17:12:38.306Z,5.18
2022-10-29T17:15:05.581Z,5.47
2022-10-29T17:17:32.757Z,5.30
2022-10-29T17:19:59.658Z,4.93
2022-10-29T17:22:26.415Z,5.13
2022-10-29T17:24:53.171Z,5.05
2022-10-29T17:27:19.951Z,5.05
2022-10-29T17:29:46.776Z,5.50
2022-10-29T17:32:14.422Z,5.32
2022-10-29T17:34:41.157Z,4.80
2022-10-29T17:37:09.279Z,5.22
2022-10-29T17:39:36.106Z,4.63
2022-10-29T17:42:02.947Z,5.13
2022-10-29T17:44:30.969Z,3.92
2022-10-29T17:46:57.776Z,4.63
2022-10-29T17:49:25.758Z,4.40
2022-10-29T17:51:53.092Z,3.70
2022-10-29T17:54:21.347Z,3.75
2022-10-29T17:56:49.034Z,4.43
2022-10-29T17:59:15.935Z,3.45
2022-10-29T18:01:45.251Z,3.47
2022-10-29T18:04:12.172Z,3.40
2022-10-29T18:06:39.003Z,3.38
2022-10-29T18:09:06.202Z,3.42
2022-10-29T18:11:32.979Z,3.67
2022-10-29T18:13:59.836Z,3.17
2022-10-29T18:16:28.428Z,3.15
2022-10-29T18:19:02.269Z,3.13
2022-10-29T18:21:30.596Z,3.17
2022-10-29T18:23:58.217Z,2.75
2022-10-29T18:26:35.003Z,2.92
2022-10-29T18:29:05.459Z,3.10
2022-10-29T18:31:32.293Z,3.40
2022-10-29T18:34:01.676Z,2.40
2022-10-29T18:36:28.890Z,2.78
2022-10-29T18:38:57.441Z,3.50
2022-10-29T18:41:24.971Z,2.88
2022-10-29T18:43:52.233Z,3.60
2022-10-29T18:46:21.467Z,4.00
2022-10-29T18:48:48.922Z,3.55
2022-10-29T18:51:24.106Z,4.75
2022-10-29T18:53:51.532Z,4.27
2022-10-29T18:56:20.264Z,4.70
2022-10-29T18:58:47.675Z,4.20
2022-10-29T19:01:19.778Z,4.07
2022-10-29T19:03:51.757Z,5.53
2022-10-29T19:06:20.195Z,4.10
2022-10-29T19:08:47.557Z,3.63
2022-10-29T19:11:17.627Z,3.78
2022-10-29T19:13:49.420Z,4.18
2022-10-29T19:16:16.243Z,3.97
2022-10-29T19:18:42.980Z,4.05
2022-10-29T19:21:18.437Z,4.35
2022-10-29T19:23:46.298Z,4.15
2022-10-29T19:26:18.341Z,3.60
2022-10-29T19:28:46.829Z,3.70
2022-10-29T19:31:19.661Z,3.20
2022-10-29T19:33:48.506Z,3.15
2022-10-29T19:36:16.537Z,3.55
2022-10-29T19:38:43.785Z,3.58
2022-10-29T19:41:12.327Z,3.05
2022-10-29T19:43:41.123Z,3.67
2022-10-29T19:46:12.205Z,3.53
2022-10-29T19:48:40.058Z,3.00
2022-10-29T19:51:07.901Z,3.10
2022-10-29T19:53:37.392Z,3.45
2022-10-29T19:56:04.908Z,3.35
2022-10-29T19:58:33.268Z,3.38
2022-10-29T20:01:08.710Z,3.13
2022-10-29T20:03:36.227Z,2.47
2022-10-29T20:06:03.443Z,2.72
2022-10-29T20:08:30.299Z,2.30
2022-10-29T20:10:58.372Z,2.92
2022-10-29T20:13:25.695Z,2.40
2022-10-29T20:15:52.719Z,3.05
2022-10-29T20:18:20.353Z,2.50
2022-10-29T20:20:52.626Z,2.60
2022-10-29T20:23:19.646Z,2.40
2022-10-29T20:25:46.867Z,2.55
2022-10-29T20:28:13.648Z,2.53
2022-10-29T20:30:40.502Z,2.42
2022-10-29T20:33:07.255Z,2.92
2022-10-29T20:35:34.363Z,3.03
2022-10-29T20:38:01.415Z,2.40
2022-10-29T20:40:28.566Z,2.85
2022-10-29T20:42:55.927Z,3.65
2022-10-29T20:45:23.186Z,2.80
2022-10-29T20:47:49.936Z,3.20
2022-10-29T20:50:16.753Z,2.75
2022-10-29T20:52:48.281Z,3.15
2022-10-29T20:55:16.111Z,2.95
2022-10-29T20:57:42.863Z,2.75
2022-10-29T21:00:10.303Z,3.20
2022-10-29T21:02:37.354Z,3.20
2022-10-29T21:05:04.639Z,3.05
2022-10-29T21:07:32.265Z,2.92
2022-10-29T21:09:59.728Z,4.18
2022-10-29T21:12:26.818Z,2.67
2022-10-29T21:14:53.707Z,2.90
2022-10-29T21:17:22.132Z,3.03
2022-10-29T21:19:49.100Z,2.78
2022-10-29T21:22:18.743Z,2.97
2022-10-29T21:24:45.902Z,3.08
2022-10-29T21:27:12.773Z,2.72
2022-10-29T21:29:39.615Z,2.83
2022-10-29T21:32:06.471Z,3.33
2022-10-29T21:34:33.380Z,2.67
2022-10-29T21:37:00.230Z,2.42
2022-10-29T21:39:27.681Z,2.90
2022-10-29T21:41:54.452Z,2.75
2022-10-29T21:44:21.367Z,2.78
2022-10-29T21:46:48.105Z,2.53
2022-10-29T21:49:14.924Z,3.00
2022-10-29T21:51:42.307Z,2.90
2022-10-29T21:54:09.146Z,2.85
2022-10-29T21:56:35.985Z,2.85
2022-10-29T21:59:03.077Z,2.80
2022-10-29T22:01:29.983Z,3.03
2022-10-29T22:03:56.888Z,3.08
2022-10-29T22:06:27.203Z,3.20
2022-10-29T22:08:56.632Z,2.90
2022-10-29T22:11:24.502Z,2.75
2022-10-29T22:13:52.803Z,3.10
2022-10-29T22:16:19.850Z,3.30
2022-10-29T22:18:46.668Z,3.63
2022-10-29T22:21:17.902Z,3.50
2022-10-29T22:23:47.230Z,2.78
2022-10-29T22:26:15.485Z,3.58
2022-10-29T22:28:42.823Z,3.35
2022-10-29T22:31:09.839Z,3.63
2022-10-29T22:33:36.685Z,3.15
2022-10-29T22:36:24.627Z,3.20
2022-10-29T22:38:56.070Z,3.80
2022-10-29T22:41:23.582Z,3.63
2022-10-29T22:43:50.329Z,3.58
2022-10-29T22:46:18.145Z,3.17
2022-10-29T22:48:46.228Z,3.97
2022-10-29T22:51:21.469Z,2.63
2022-10-29T22:53:48.924Z,3.37
2022-10-29T22:56:18.368Z,3.42
2022-10-29T22:58:45.579Z,3.33
2022-10-29T23:01:16.092Z,3.10
2022-10-29T23:03:43.706Z,3.55
2022-10-29T23:06:15.769Z,2.85
2022-10-29T23:08:44.458Z,3.22
2022-10-29T23:11:20.472Z,2.95
2022-10-29T23:13:53.530Z,2.65
2022-10-29T23:16:21.282Z,3.13
2022-10-29T23:18:51.991Z,2.97
2022-10-29T23:21:19.524Z,3.05
2022-10-29T23:23:47.143Z,3.30
2022-10-29T23:26:15.191Z,3.30
2022-10-29T23:28:42.681Z,3.35
2022-10-29T23:31:15.132Z,3.30
2022-10-29T23:33:46.540Z,3.20
2022-10-29T23:36:14.616Z,3.25
2022-10-29T23:38:41.698Z,3.20
2022-10-29T23:41:08.919Z,3.33
2022-10-29T23:43:35.818Z,3.25
2022-10-29T23:46:02.653Z,3.10
2022-10-29T23:48:29.500Z,2.90
2022-10-29T23:50:56.650Z,3.05
2022-10-29T23:53:24.369Z,3.33
2022-10-29T23:55:52.303Z,2.92
2022-10-29T23:58:19.144Z,2.97
